createdAt,value
2023-04-26T00:02:07.519Z,1.73
2023-04-26T00:04:35.950Z,2.03
2023-04-26T00:07:04.028Z,1.92
2023-04-26T00:09:31.860Z,2.00
2023-04-26T00:11:59.892Z,1.88
2023-04-26T00:14:27.532Z,2.15
2023-04-26T00:16:55.060Z,1.80
2023-04-26T00:19:24.184Z,2.20
2023-04-26T00:21:51.778Z,1.90
2023-04-26T00:24:22.286Z,1.83
2023-04-26T00:26:49.895Z,1.90
2023-04-26T00:29:17.799Z,2.17
2023-04-26T00:31:45.406Z,2.47
2023-04-26T00:34:13.876Z,1.98
2023-04-26T00:36:41.405Z,2.30
2023-04-26T00:39:09.497Z,2.33
2023-04-26T00:41:37.245Z,2.30
2023-04-26T00:44:05.149Z,2.22
2023-04-26T00:46:32.709Z,2.30
2023-04-26T00:49:00.665Z,2.55
2023-04-26T00:51:28.397Z,2.60
2023-04-26T00:53:56.102Z,2.30
2023-04-26T00:56:24.930Z,2.30
2023-04-26T00:58:53.230Z,2.30
2023-04-26T01:01:21.535Z,2.35
2023-04-26T01:03:49.275Z,2.30
2023-04-26T01:06:17.979Z,2.40
2023-04-26T01:08:45.626Z,2.15
2023-04-26T01:11:14.740Z,2.22
2023-04-26T01:13:42.733Z,2.47
2023-04-26T01:16:10.519Z,2.25
2023-04-26T01:18:38.074Z,2.20
2023-04-26T01:21:05.752Z,2.10
2023-04-26T01:23:33.545Z,2.17
2023-04-26T01:26:01.182Z,2.03
2023-04-26T01:28:28.691Z,2.03
2023-04-26T01:30:56.983Z,2.50
2023-04-26T01:33:24.636Z,2.00
2023-04-26T01:35:52.816Z,2.05
2023-04-26T01:38:20.859Z,2.25
2023-04-26T01:40:48.393Z,2.05
2023-04-26T01:43:18.500Z,2.37
2023-04-26T01:45:49.118Z,2.30
2023-04-26T01:48:32.534Z,2.17
2023-04-26T01:51:02.459Z,2.28
2023-04-26T01:53:29.991Z,2.28
2023-04-26T01:56:02.032Z,2.83
2023-04-26T01:58:31.691Z,2.60
2023-04-26T02:01:06.451Z,2.72
2023-04-26T02:03:34.300Z,2.50
2023-04-26T02:06:02.243Z,2.42
2023-04-26T02:08:30.159Z,2.10
2023-04-26T02:10:57.909Z,2.00
2023-04-26T02:13:26.049Z,2.47
2023-04-26T02:15:53.682Z,2.35
2023-04-26T02:18:22.696Z,2.30
2023-04-26T02:20:51.464Z,2.27
2023-04-26T02:23:19.083Z,2.35
2023-04-26T02:25:47.652Z,2.47
2023-04-26T02:28:16.360Z,2.40
2023-04-26T02:30:44.843Z,2.20
2023-04-26T02:33:12.442Z,2.30
2023-04-26T02:35:40.188Z,2.35
2023-04-26T02:38:07.852Z,2.58
2023-04-26T02:40:36.182Z,2.20
2023-04-26T02:43:03.929Z,2.30
2023-04-26T02:45:31.521Z,2.67
2023-04-26T02:47:59.653Z,2.50
2023-04-26T02:50:27.730Z,2.40
2023-04-26T02:52:55.799Z,2.30
2023-04-26T02:55:23.600Z,2.30
2023-04-26T02:57:51.169Z,2.23
2023-04-26T03:00:18.740Z,2.22
2023-04-26T03:02:46.574Z,2.53
2023-04-26T03:05:14.252Z,2.63
2023-04-26T03:07:42.060Z,2.40
2023-04-26T03:10:10.236Z,2.40
2023-04-26T03:12:39.321Z,2.40
2023-04-26T03:15:07.394Z,2.30
2023-04-26T03:17:35.150Z,2.10
2023-04-26T03:20:06.256Z,2.58
2023-04-26T03:22:34.677Z,2.57
2023-04-26T03:25:02.391Z,2.50
2023-04-26T03:27:29.950Z,2.38
2023-04-26T03:29:57.706Z,2.30
2023-04-26T03:32:25.529Z,2.47
2023-04-26T03:34:53.177Z,2.43
2023-04-26T03:37:21.086Z,3.00
2023-04-26T03:39:55.557Z,2.40
2023-04-26T03:42:24.056Z,2.70
2023-04-26T03:44:51.653Z,2.90
2023-04-26T03:47:19.194Z,2.90
2023-04-26T03:49:48.850Z,3.30
2023-04-26T03:52:16.941Z,3.17
2023-04-26T03:54:51.255Z,3.25
2023-04-26T03:57:18.962Z,2.90
2023-04-26T03:59:49.543Z,2.70
2023-04-26T04:02:17.828Z,3.13
2023-04-26T04:04:45.619Z,3.50
2023-04-26T04:07:13.288Z,3.58
2023-04-26T04:09:40.981Z,4.03
2023-04-26T04:12:08.947Z,3.50
2023-04-26T04:14:36.496Z,3.40
2023-04-26T04:17:04.082Z,3.03
2023-04-26T04:19:32.683Z,2.60
2023-04-26T04:22:00.217Z,2.80
2023-04-26T04:24:27.938Z,3.10
2023-04-26T04:26:56.205Z,2.90
2023-04-26T04:29:23.911Z,2.80
2023-04-26T04:31:52.290Z,3.00
2023-04-26T04:34:20.012Z,2.60
2023-04-26T04:36:48.397Z,2.60
2023-04-26T04:39:17.323Z,2.50
2023-04-26T04:41:49.069Z,2.90
2023-04-26T04:44:18.706Z,2.75
2023-04-26T04:46:46.387Z,2.70
2023-04-26T04:49:15.518Z,2.20
2023-04-26T04:51:43.581Z,2.40
2023-04-26T04:54:16.699Z,2.50
2023-04-26T04:56:46.838Z,2.60
2023-04-26T04:59:15.907Z,2.40
2023-04-26T05:01:43.507Z,2.77
2023-04-26T05:04:14.878Z,2.65
2023-04-26T05:06:42.862Z,2.28
2023-04-26T05:09:11.527Z,2.40
2023-04-26T05:11:39.383Z,2.50
2023-04-26T05:14:10.111Z,2.47
2023-04-26T05:16:38.540Z,2.47
2023-04-26T05:19:08.612Z,2.50
2023-04-26T05:21:37.432Z,2.35
2023-04-26T05:24:05.400Z,2.28
2023-04-26T05:26:35.854Z,2.07
2023-04-26T05:29:33.401Z,2.28
2023-04-26T05:32:26.598Z,1.52
2023-04-26T05:35:12.835Z,2.20
2023-04-26T05:37:40.425Z,1.95
2023-04-26T05:40:09.825Z,2.20
2023-04-26T05:42:37.407Z,2.30
2023-04-26T05:45:06.109Z,2.10
2023-04-26T05:47:33.882Z,2.03
2023-04-26T05:50:01.585Z,2.30
2023-04-26T05:52:29.642Z,2.20
2023-04-26T05:54:57.222Z,2.10
2023-04-26T05:57:25.490Z,2.10
2023-04-26T05:59:54.109Z,2.08
2023-04-26T06:02:24.019Z,2.20
2023-04-26T06:04:51.882Z,2.00
2023-04-26T06:07:19.685Z,2.22
2023-04-26T06:09:48.314Z,2.47
2023-04-26T06:12:16.847Z,2.50
2023-04-26T06:14:46.445Z,2.30
2023-04-26T06:17:18.259Z,2.80
2023-04-26T06:19:45.930Z,2.42
2023-04-26T06:22:13.666Z,2.50
2023-04-26T06:24:41.368Z,2.78
2023-04-26T06:27:08.924Z,2.78
2023-04-26T06:29:38.037Z,2.93
2023-04-26T06:32:06.106Z,3.38
2023-04-26T06:34:34.315Z,3.22
2023-04-26T06:37:01.908Z,3.80
2023-04-26T06:39:30.139Z,4.00
2023-04-26T06:41:57.804Z,4.53
2023-04-26T06:44:29.604Z,4.60
2023-04-26T06:47:03.143Z,4.70
2023-04-26T06:49:31.374Z,5.40
2023-04-26T06:51:58.943Z,5.50
2023-04-26T06:54:30.063Z,5.30
2023-04-26T06:56:58.420Z,5.97
2023-04-26T06:59:27.233Z,5.80
2023-04-26T07:01:55.088Z,5.07
2023-04-26T07:04:23.277Z,4.10
2023-04-26T07:06:51.351Z,3.17
2023-04-26T07:09:18.870Z,2.80
2023-04-26T07:11:47.653Z,2.70
2023-04-26T07:14:15.239Z,2.15
2023-04-26T07:16:42.862Z,1.92
2023-04-26T07:19:11.347Z,2.30
2023-04-26T07:21:38.880Z,2.60
2023-04-26T07:24:06.988Z,2.22
2023-04-26T07:26:37.283Z,2.53
2023-04-26T07:29:04.917Z,2.30
2023-04-26T07:31:32.465Z,2.13
2023-04-26T07:34:00.136Z,2.47
2023-04-26T07:36:28.020Z,2.40
2023-04-26T07:38:55.607Z,2.13
2023-04-26T07:41:23.271Z,2.70
2023-04-26T07:43:51.108Z,2.60
2023-04-26T07:46:18.989Z,2.63
2023-04-26T07:48:46.665Z,2.60
2023-04-26T07:51:14.328Z,3.22
2023-04-26T07:53:41.948Z,2.70
2023-04-26T07:56:10.156Z,2.70
2023-04-26T07:58:39.689Z,2.30
2023-04-26T08:01:07.651Z,3.00
2023-04-26T08:03:35.569Z,2.70
2023-04-26T08:06:03.919Z,2.90
2023-04-26T08:08:33.548Z,2.63
2023-04-26T08:11:01.716Z,2.67
2023-04-26T08:13:29.617Z,2.90
2023-04-26T08:15:57.288Z,2.60
2023-04-26T08:18:24.877Z,2.70
2023-04-26T08:20:55.273Z,2.50
2023-04-26T08:23:22.999Z,3.08
2023-04-26T08:25:50.718Z,2.60
2023-04-26T08:28:18.399Z,2.35
2023-04-26T08:30:46.045Z,2.80
2023-04-26T08:33:13.752Z,2.60
2023-04-26T08:35:41.279Z,2.63
2023-04-26T08:38:08.877Z,2.70
2023-04-26T08:40:36.757Z,3.08
2023-04-26T08:43:04.434Z,2.25
2023-04-26T08:45:35.637Z,2.50
2023-04-26T08:48:11.925Z,2.47
2023-04-26T08:50:40.802Z,2.88
2023-04-26T08:53:08.532Z,2.40
2023-04-26T08:55:37.863Z,2.53
2023-04-26T08:58:07.683Z,2.40
2023-04-26T09:00:36.488Z,2.70
2023-04-26T09:03:04.782Z,2.50
2023-04-26T09:05:34.468Z,2.58
2023-04-26T09:08:03.717Z,2.60
2023-04-26T09:10:32.551Z,2.50
2023-04-26T09:13:00.170Z,2.25
2023-04-26T09:15:28.456Z,2.72
2023-04-26T09:17:56.124Z,2.40
2023-04-26T09:20:28.482Z,2.90
2023-04-26T09:23:07.194Z,2.70
2023-04-26T09:25:35.443Z,2.92
2023-04-26T09:28:04.426Z,2.95
2023-04-26T09:30:40.044Z,3.00
2023-04-26T09:33:09.677Z,2.92
2023-04-26T09:35:46.362Z,3.00
2023-04-26T09:43:38.856Z,3.30
2023-04-26T09:57:16.807Z,2.97
2023-04-26T09:59:56.398Z,3.15
2023-04-26T10:02:26.717Z,3.30
2023-04-26T10:04:57.362Z,2.95
2023-04-26T10:07:26.063Z,2.60
2023-04-26T10:09:55.687Z,2.43
2023-04-26T10:12:23.570Z,2.65
2023-04-26T10:14:51.095Z,2.42
2023-04-26T10:17:19.543Z,3.00
2023-04-26T10:19:50.035Z,2.95
2023-04-26T10:22:22.630Z,2.83
2023-04-26T10:24:54.092Z,3.03
2023-04-26T10:27:43.916Z,3.78
2023-04-26T10:30:16.642Z,3.05
2023-04-26T10:32:53.507Z,3.30
2023-04-26T10:35:22.629Z,2.90
2023-04-26T10:38:02.211Z,2.90
2023-04-26T10:40:39.193Z,2.78
2023-04-26T10:43:15.775Z,2.60
2023-04-26T10:45:44.923Z,2.30
2023-04-26T10:48:21.661Z,2.50
2023-04-26T10:51:13.294Z,2.45
2023-04-26T10:53:47.111Z,2.70
2023-04-26T10:56:23.843Z,2.33
2023-04-26T11:01:42.650Z,1.80
2023-04-26T11:04:12.151Z,1.50
2023-04-26T11:06:57.968Z,1.50
2023-04-26T11:09:39.992Z,1.50
2023-04-26T11:12:12.455Z,2.00
2023-04-26T11:14:42.466Z,1.70
2023-04-26T11:17:10.646Z,1.80
2023-04-26T11:19:38.585Z,2.22
2023-04-26T11:22:07.989Z,2.03
2023-04-26T11:24:42.782Z,2.08
2023-04-26T11:27:12.206Z,2.00
2023-04-26T11:29:39.977Z,2.00
2023-04-26T11:32:08.535Z,1.92
2023-04-26T11:34:39.047Z,1.80
2023-04-26T11:37:07.553Z,2.15
2023-04-26T11:39:36.219Z,2.03
2023-04-26T11:42:12.109Z,2.00
2023-04-26T11:44:41.279Z,1.73
2023-04-26T11:47:09.696Z,1.60
2023-04-26T11:49:38.225Z,1.85
2023-04-26T11:52:08.253Z,1.67
2023-04-26T11:54:38.048Z,1.55
2023-04-26T11:57:17.475Z,1.80
2023-04-26T11:59:46.376Z,1.60
2023-04-26T12:02:14.407Z,1.73
2023-04-26T12:04:42.478Z,2.00
2023-04-26T12:07:10.284Z,2.10
2023-04-26T12:09:42.520Z,2.08
2023-04-26T12:12:11.640Z,2.00
2023-04-26T12:14:40.808Z,1.50
2023-04-26T12:17:08.641Z,1.90
2023-04-26T12:19:41.114Z,2.20
2023-04-26T12:22:09.403Z,1.85
2023-04-26T12:24:37.731Z,2.05
2023-04-26T12:27:09.030Z,2.17
2023-04-26T12:29:36.616Z,1.90
2023-04-26T12:32:04.482Z,1.60
2023-04-26T12:34:32.504Z,1.90
2023-04-26T12:36:59.997Z,1.88
2023-04-26T12:39:27.580Z,1.70
2023-04-26T12:41:55.410Z,1.70
2023-04-26T12:44:22.989Z,2.00
2023-04-26T12:46:51.412Z,1.92
2023-04-26T12:49:19.094Z,1.40
2023-04-26T12:51:46.668Z,1.60
2023-04-26T12:54:14.158Z,1.37
2023-04-26T12:56:44.530Z,1.60
2023-04-26T12:59:12.325Z,1.80
2023-04-26T13:01:40.023Z,2.00
2023-04-26T13:04:07.830Z,1.70
2023-04-26T13:06:35.950Z,1.60
2023-04-26T13:09:03.887Z,1.60
2023-04-26T13:11:32.361Z,1.80
2023-04-26T13:14:00.185Z,1.48
2023-04-26T13:16:27.900Z,1.50
2023-04-26T13:18:56.422Z,1.40
2023-04-26T13:21:24.035Z,1.98
2023-04-26T13:23:51.637Z,1.50
2023-04-26T13:26:19.265Z,1.60
2023-04-26T13:28:47.697Z,1.70
2023-04-26T13:31:17.514Z,1.50
2023-04-26T13:33:47.469Z,1.45
2023-04-26T13:36:16.298Z,1.63
2023-04-26T13:38:44.760Z,1.38
2023-04-26T13:41:13.136Z,1.90
2023-04-26T13:43:41.020Z,1.60
2023-04-26T13:46:08.630Z,1.52
2023-04-26T13:48:36.225Z,1.67
2023-04-26T13:51:07.076Z,1.40
2023-04-26T13:53:34.785Z,1.40
2023-04-26T13:56:02.418Z,1.30
2023-04-26T13:58:29.982Z,1.52
2023-04-26T14:00:57.504Z,1.30
2023-04-26T14:03:25.295Z,1.30
2023-04-26T14:05:53.023Z,1.50
2023-04-26T14:08:21.188Z,1.13
2023-04-26T14:10:48.862Z,1.33
2023-04-26T14:13:16.380Z,1.20
2023-04-26T14:15:43.956Z,1.40
2023-04-26T14:18:11.757Z,1.30
2023-04-26T14:20:39.355Z,1.43
2023-04-26T14:23:06.893Z,1.40
2023-04-26T14:25:34.696Z,1.15
2023-04-26T14:28:02.503Z,1.25
2023-04-26T14:30:30.080Z,1.25
